sensor_id;sensor_type;location;lat;lon;timestamp;pressure;altitude;pressure_sealevel;temperature;humidity
65376;BME280;51976;47.332;9.404;2022-10-16T00:01:54;92921.41;;;18.26;55.43
65376;BME280;51976;47.332;9.404;2022-10-16T00:04:19;92922.56;;;18.25;55.37
65376;BME280;51976;47.332;9.404;2022-10-16T00:06:45;92917.41;;;18.23;55.43
65376;BME280;51976;47.332;9.404;2022-10-16T00:09:10;92923.69;;;18.24;55.51
65376;BME280;51976;47.332;9.404;2022-10-16T00:11:37;92921.75;;;18.24;55.31
65376;BME280;51976;47.332;9.404;2022-10-16T00:14:08;92918.22;;;18.24;55.22
65376;BME280;51976;47.332;9.404;2022-10-16T00:16:34;92917.09;;;18.25;55.39
65376;BME280;51976;47.332;9.404;2022-10-16T00:19:00;92914.38;;;18.25;55.48
65376;BME280;51976;47.332;9.404;2022-10-16T00:21:28;92906.97;;;18.25;55.28
65376;BME280;51976;47.332;9.404;2022-10-16T00:23:58;92914.38;;;18.25;55.41
65376;BME280;51976;47.332;9.404;2022-10-16T00:26:28;92918.53;;;18.22;55.45
65376;BME280;51976;47.332;9.404;2022-10-16T00:28:54;92913.41;;;18.21;55.40
65376;BME280;51976;47.332;9.404;2022-10-16T00:31:21;92920.16;;;18.23;55.42
65376;BME280;51976;47.332;9.404;2022-10-16T00:33:47;92923.19;;;18.22;55.47
65376;BME280;51976;47.332;9.404;2022-10-16T00:36:17;92926.72;;;18.22;55.48
65376;BME280;51976;47.332;9.404;2022-10-16T00:38:43;92922.06;;;18.23;55.16
65376;BME280;51976;47.332;9.404;2022-10-16T00:41:14;92922.41;;;18.21;55.24
65376;BME280;51976;47.332;9.404;2022-10-16T00:43:51;92924.00;;;18.22;55.51
65376;BME280;51976;47.332;9.404;2022-10-16T00:46:29;92927.53;;;18.23;55.24
65376;BME280;51976;47.332;9.404;2022-10-16T00:49:09;92923.19;;;18.22;55.56
65376;BME280;51976;47.332;9.404;2022-10-16T00:51:40;92922.06;;;18.23;55.25
65376;BME280;51976;47.332;9.404;2022-10-16T00:54:10;92925.94;;;18.22;55.32
65376;BME280;51976;47.332;9.404;2022-10-16T00:56:36;92919.66;;;18.21;55.40
65376;BME280;51976;47.332;9.404;2022-10-16T00:59:06;92918.88;;;18.21;55.29
65376;BME280;51976;47.332;9.404;2022-10-16T01:01:33;92920.00;;;18.20;55.38
65376;BME280;51976;47.332;9.404;2022-10-16T01:03:59;92932.50;;;18.21;55.25
65376;BME280;51976;47.332;9.404;2022-10-16T01:06:32;92924.66;;;18.19;55.41
65376;BME280;51976;47.332;9.404;2022-10-16T01:09:16;92927.38;;;18.19;55.12
65376;BME280;51976;47.332;9.404;2022-10-16T01:12:07;92924.66;;;18.19;55.25
65376;BME280;51976;47.332;9.404;2022-10-16T01:14:47;92918.41;;;18.19;55.53
65376;BME280;51976;47.332;9.404;2022-10-16T01:17:28;92921.94;;;18.19;55.60
65376;BME280;51976;47.332;9.404;2022-10-16T01:20:03;92918.06;;;18.20;55.34
65376;BME280;51976;47.332;9.404;2022-10-16T01:22:50;92918.06;;;18.20;55.14
65376;BME280;51976;47.332;9.404;2022-10-16T01:25:35;92921.13;;;18.19;55.48
65376;BME280;51976;47.332;9.404;2022-10-16T01:28:05;92920.00;;;18.20;55.60
65376;BME280;51976;47.332;9.404;2022-10-16T01:30:33;92917.59;;;18.18;55.43
65376;BME280;51976;47.332;9.404;2022-10-16T01:33:06;92912.94;;;18.19;55.44
65376;BME280;51976;47.332;9.404;2022-10-16T01:35:39;92915.34;;;18.20;55.11
65376;BME280;51976;47.332;9.404;2022-10-16T01:38:24;92918.88;;;18.21;55.39
65376;BME280;51976;47.332;9.404;2022-10-16T01:40:58;92918.88;;;18.21;55.13
65376;BME280;51976;47.332;9.404;2022-10-16T01:43:29;92918.41;;;18.19;55.48
65376;BME280;51976;47.332;9.404;2022-10-16T01:46:00;92928.50;;;18.18;55.38
65376;BME280;51976;47.332;9.404;2022-10-16T01:48:26;92925.78;;;18.18;55.47
65376;BME280;51976;47.332;9.404;2022-10-16T01:51:03;92921.94;;;18.19;55.44
65376;BME280;51976;47.332;9.404;2022-10-16T01:53:30;92920.66;;;18.17;55.10
65376;BME280;51976;47.332;9.404;2022-10-16T01:55:58;92924.97;;;18.18;55.23
65376;BME280;51976;47.332;9.404;2022-10-16T01:58:25;92925.78;;;18.18;55.35
65376;BME280;51976;47.332;9.404;2022-10-16T02:00:53;92924.97;;;18.18;55.45
65376;BME280;51976;47.332;9.404;2022-10-16T02:03:20;92922.25;;;18.18;55.10
65376;BME280;51976;47.332;9.404;2022-10-16T02:05:50;92922.56;;;18.16;55.23
65376;BME280;51976;47.332;9.404;2022-10-16T02:08:17;92932.03;;;18.19;55.57
65376;BME280;51976;47.332;9.404;2022-10-16T02:10:43;92923.69;;;18.15;55.25
65376;BME280;51976;47.332;9.404;2022-10-16T02:13:17;92926.91;;;18.17;55.23
65376;BME280;51976;47.332;9.404;2022-10-16T02:15:44;92915.19;;;18.17;55.55
65376;BME280;51976;47.332;9.404;2022-10-16T02:18:09;92920.97;;;18.15;55.41
65376;BME280;51976;47.332;9.404;2022-10-16T02:20:48;92922.56;;;18.16;55.41
65376;BME280;51976;47.332;9.404;2022-10-16T02:23:20;92922.56;;;18.16;55.53
65376;BME280;51976;47.332;9.404;2022-10-16T02:25:50;92925.63;;;18.15;55.47
65376;BME280;51976;47.332;9.404;2022-10-16T02:28:21;92928.03;;;18.16;55.47
65376;BME280;51976;47.332;9.404;2022-10-16T02:30:58;92929.97;;;18.16;55.26
65376;BME280;51976;47.332;9.404;2022-10-16T02:33:25;92928.84;;;18.17;55.33
65376;BME280;51976;47.332;9.404;2022-10-16T02:35:53;92927.22;;;18.16;55.44
65376;BME280;51976;47.332;9.404;2022-10-16T02:38:20;92932.69;;;18.16;55.44
65376;BME280;51976;47.332;9.404;2022-10-16T02:40:46;92921.78;;;18.16;55.53
65376;BME280;51976;47.332;9.404;2022-10-16T02:43:12;92923.38;;;18.17;55.56
65376;BME280;51976;47.332;9.404;2022-10-16T02:45:38;92925.63;;;18.15;55.56
65376;BME280;51976;47.332;9.404;2022-10-16T02:48:04;92924.50;;;18.16;55.23
65376;BME280;51976;47.332;9.404;2022-10-16T02:50:30;92935.88;;;18.18;55.20
65376;BME280;51976;47.332;9.404;2022-10-16T02:52:55;92931.09;;;18.15;55.44
65376;BME280;51976;47.332;9.404;2022-10-16T02:55:20;92943.44;;;18.12;55.42
65376;BME280;51976;47.332;9.404;2022-10-16T02:57:46;92931.72;;;18.12;55.65
65376;BME280;51976;47.332;9.404;2022-10-16T03:00:14;92931.09;;;18.15;55.25
65376;BME280;51976;47.332;9.404;2022-10-16T03:02:40;92931.09;;;18.15;55.47
65376;BME280;51976;47.332;9.404;2022-10-16T03:05:06;92931.09;;;18.15;55.31
65376;BME280;51976;47.332;9.404;2022-10-16T03:07:32;92928.19;;;18.11;55.45
65376;BME280;51976;47.332;9.404;2022-10-16T03:09:57;92929.47;;;18.14;55.33
65376;BME280;51976;47.332;9.404;2022-10-16T03:12:26;92939.28;;;18.15;55.41
65376;BME280;51976;47.332;9.404;2022-10-16T03:14:51;92934.94;;;18.14;55.63
65376;BME280;51976;47.332;9.404;2022-10-16T03:17:17;92931.41;;;18.13;55.39
65376;BME280;51976;47.332;9.404;2022-10-16T03:19:42;92938.47;;;18.14;55.25
65376;BME280;51976;47.332;9.404;2022-10-16T03:22:08;92930.28;;;18.14;55.36
65376;BME280;51976;47.332;9.404;2022-10-16T03:24:33;92936.06;;;18.13;55.12
65376;BME280;51976;47.332;9.404;2022-10-16T03:26:59;92941.19;;;18.14;55.43
65376;BME280;51976;47.332;9.404;2022-10-16T03:29:24;92935.75;;;18.14;55.51
65376;BME280;51976;47.332;9.404;2022-10-16T03:31:51;92941.53;;;18.13;55.46
65376;BME280;51976;47.332;9.404;2022-10-16T03:34:16;92940.41;;;18.14;55.57
65376;BME280;51976;47.332;9.404;2022-10-16T03:36:42;92940.41;;;18.14;55.41
65376;BME280;51976;47.332;9.404;2022-10-16T03:39:07;92938.78;;;18.13;55.50
65376;BME280;51976;47.332;9.404;2022-10-16T03:41:32;92945.06;;;18.13;55.17
65376;BME280;51976;47.332;9.404;2022-10-16T03:43:58;92936.06;;;18.13;55.46
65376;BME280;51976;47.332;9.404;2022-10-16T03:46:23;92943.44;;;18.12;55.48
65376;BME280;51976;47.332;9.404;2022-10-16T03:48:49;92944.25;;;18.13;55.58
65376;BME280;51976;47.332;9.404;2022-10-16T03:51:14;92935.59;;;18.11;55.45
65376;BME280;51976;47.332;9.404;2022-10-16T03:53:40;92939.91;;;18.12;55.40
65376;BME280;51976;47.332;9.404;2022-10-16T03:56:05;92942.66;;;18.12;55.52
65376;BME280;51976;47.332;9.404;2022-10-16T03:58:31;92937.19;;;18.12;55.47
65376;BME280;51976;47.332;9.404;2022-10-16T04:00:56;92935.59;;;18.11;55.31
65376;BME280;51976;47.332;9.404;2022-10-16T04:03:22;92946.50;;;18.11;55.42
65376;BME280;51976;47.332;9.404;2022-10-16T04:05:48;92948.09;;;18.12;55.31
65376;BME280;51976;47.332;9.404;2022-10-16T04:08:13;92948.09;;;18.12;55.55
65376;BME280;51976;47.332;9.404;2022-10-16T04:10:39;92952.28;;;18.09;55.32
65376;BME280;51976;47.332;9.404;2022-10-16T04:13:04;92948.44;;;18.10;55.42
65376;BME280;51976;47.332;9.404;2022-10-16T04:15:29;92944.41;;;18.08;55.38
65376;BME280;51976;47.332;9.404;2022-10-16T04:17:55;92952.28;;;18.09;55.53
65376;BME280;51976;47.332;9.404;2022-10-16T04:20:20;92952.75;;;18.11;55.49
65376;BME280;51976;47.332;9.404;2022-10-16T04:22:46;92961.25;;;18.10;55.28
65376;BME280;51976;47.332;9.404;2022-10-16T04:25:11;92961.25;;;18.10;55.49
65376;BME280;51976;47.332;9.404;2022-10-16T04:27:37;92970.25;;;18.10;55.40
65376;BME280;51976;47.332;9.404;2022-10-16T04:30:04;92967.53;;;18.10;55.33
65376;BME280;51976;47.332;9.404;2022-10-16T04:32:29;92971.38;;;18.09;55.29
65376;BME280;51976;47.332;9.404;2022-10-16T04:34:55;92972.50;;;18.08;55.41
65376;BME280;51976;47.332;9.404;2022-10-16T04:37:24;92978.75;;;18.09;55.33
65376;BME280;51976;47.332;9.404;2022-10-16T04:39:50;92976.84;;;18.09;55.25
65376;BME280;51976;47.332;9.404;2022-10-16T04:42:16;92983.41;;;18.08;55.41
65376;BME280;51976;47.332;9.404;2022-10-16T04:44:41;92990.78;;;18.08;55.34
65376;BME280;51976;47.332;9.404;2022-10-16T04:47:07;92990.31;;;18.06;55.54
65376;BME280;51976;47.332;9.404;2022-10-16T04:49:33;92990.00;;;18.07;55.27
65376;BME280;51976;47.332;9.404;2022-10-16T04:51:58;92997.38;;;18.07;55.49
65376;BME280;51976;47.332;9.404;2022-10-16T04:54:23;92997.38;;;18.07;55.43
65376;BME280;51976;47.332;9.404;2022-10-16T04:56:49;93001.72;;;18.08;55.63
65376;BME280;51976;47.332;9.404;2022-10-16T04:59:18;93000.47;;;18.05;55.46
65376;BME280;51976;47.332;9.404;2022-10-16T05:01:43;92998.50;;;18.06;55.15
65376;BME280;51976;47.332;9.404;2022-10-16T05:04:09;93003.19;;;18.05;55.44
65376;BME280;51976;47.332;9.404;2022-10-16T05:06:35;93000.47;;;18.05;55.14
65376;BME280;51976;47.332;9.404;2022-10-16T05:09:00;93008.63;;;18.05;55.26
65376;BME280;51976;47.332;9.404;2022-10-16T05:11:26;93007.84;;;18.05;55.51
65376;BME280;51976;47.332;9.404;2022-10-16T05:13:51;93002.03;;;18.06;55.27
65376;BME280;51976;47.332;9.404;2022-10-16T05:16:17;93004.31;;;18.04;55.35
65376;BME280;51976;47.332;9.404;2022-10-16T05:18:42;93002.72;;;18.03;55.25
65376;BME280;51976;47.332;9.404;2022-10-16T05:21:08;93012.00;;;18.02;55.45
65376;BME280;51976;47.332;9.404;2022-10-16T05:23:33;92999.19;;;18.03;55.50
65376;BME280;51976;47.332;9.404;2022-10-16T05:25:59;93004.31;;;18.04;55.33
65376;BME280;51976;47.332;9.404;2022-10-16T05:28:28;92998.06;;;18.04;55.31
65376;BME280;51976;47.332;9.404;2022-10-16T05:30:54;93002.72;;;18.03;55.31
65376;BME280;51976;47.332;9.404;2022-10-16T05:33:21;93002.22;;;18.01;55.18
65376;BME280;51976;47.332;9.404;2022-10-16T05:35:47;92999.81;;;18.00;55.42
65376;BME280;51976;47.332;9.404;2022-10-16T05:38:12;93003.84;;;18.02;55.30
65376;BME280;51976;47.332;9.404;2022-10-16T05:40:38;93004.63;;;18.03;55.47
65376;BME280;51976;47.332;9.404;2022-10-16T05:43:04;93015.06;;;18.01;55.26
65376;BME280;51976;47.332;9.404;2022-10-16T05:45:29;93010.88;;;18.03;55.29
65376;BME280;51976;47.332;9.404;2022-10-16T05:47:55;93017.78;;;18.01;55.42
65376;BME280;51976;47.332;9.404;2022-10-16T05:50:20;93016.66;;;18.02;55.55
65376;BME280;51976;47.332;9.404;2022-10-16T05:52:46;93022.13;;;18.02;55.15
65376;BME280;51976;47.332;9.404;2022-10-16T05:55:11;93033.03;;;18.02;55.47
65376;BME280;51976;47.332;9.404;2022-10-16T05:57:36;93036.88;;;18.01;55.42
65376;BME280;51976;47.332;9.404;2022-10-16T06:00:03;93038.00;;;18.00;55.52
65376;BME280;51976;47.332;9.404;2022-10-16T06:02:29;93032.38;;;17.96;55.29
65376;BME280;51976;47.332;9.404;2022-10-16T06:04:57;93036.88;;;18.01;55.29
65376;BME280;51976;47.332;9.404;2022-10-16T06:07:23;93030.63;;;18.00;55.08
65376;BME280;51976;47.332;9.404;2022-10-16T06:09:50;93032.56;;;18.00;55.39
65376;BME280;51976;47.332;9.404;2022-10-16T06:12:16;93030.63;;;18.00;55.42
65376;BME280;51976;47.332;9.404;2022-10-16T06:14:41;93033.69;;;17.99;55.42
65376;BME280;51976;47.332;9.404;2022-10-16T06:17:07;93035.28;;;18.00;55.37
65376;BME280;51976;47.332;9.404;2022-10-16T06:19:32;93037.22;;;17.99;55.38
65376;BME280;51976;47.332;9.404;2022-10-16T06:21:57;93043.47;;;18.00;55.20
65376;BME280;51976;47.332;9.404;2022-10-16T06:24:24;93034.00;;;17.97;55.17
65376;BME280;51976;47.332;9.404;2022-10-16T06:26:49;93039.44;;;17.97;55.29
65376;BME280;51976;47.332;9.404;2022-10-16T06:29:15;93039.44;;;17.97;55.41
65376;BME280;51976;47.332;9.404;2022-10-16T06:31:40;93049.56;;;17.97;55.21
65376;BME280;51976;47.332;9.404;2022-10-16T06:34:06;93049.25;;;17.98;55.41
65376;BME280;51976;47.332;9.404;2022-10-16T06:36:34;93041.06;;;17.98;55.30
65376;BME280;51976;47.332;9.404;2022-10-16T06:39:00;93047.31;;;17.99;55.35
65376;BME280;51976;47.332;9.404;2022-10-16T06:41:25;93055.00;;;17.97;55.27
65376;BME280;51976;47.332;9.404;2022-10-16T06:43:51;93055.00;;;17.97;55.34
65376;BME280;51976;47.332;9.404;2022-10-16T06:46:19;93062.06;;;17.98;55.18
65376;BME280;51976;47.332;9.404;2022-10-16T06:48:46;93059.81;;;18.00;55.26
65376;BME280;51976;47.332;9.404;2022-10-16T06:51:16;93064.47;;;17.99;55.24
65376;BME280;51976;47.332;9.404;2022-10-16T06:53:47;93062.06;;;17.98;55.21
65376;BME280;51976;47.332;9.404;2022-10-16T06:56:25;93060.47;;;17.97;55.34
65376;BME280;51976;47.332;9.404;2022-10-16T06:58:52;93075.22;;;17.96;55.51
65376;BME280;51976;47.332;9.404;2022-10-16T07:01:20;93079.56;;;17.97;55.32
65376;BME280;51976;47.332;9.404;2022-10-16T07:03:47;93071.69;;;17.95;55.06
65376;BME280;51976;47.332;9.404;2022-10-16T07:06:15;93081.50;;;17.96;55.16
65376;BME280;51976;47.332;9.404;2022-10-16T07:08:43;93081.50;;;17.96;55.32
65376;BME280;51976;47.332;9.404;2022-10-16T07:11:11;93085.34;;;17.95;55.38
65376;BME280;51976;47.332;9.404;2022-10-16T07:13:38;93087.75;;;17.97;55.23
65376;BME280;51976;47.332;9.404;2022-10-16T07:16:17;93089.34;;;17.98;55.24
65376;BME280;51976;47.332;9.404;2022-10-16T07:18:44;93086.94;;;17.96;54.97
65376;BME280;51976;47.332;9.404;2022-10-16T07:21:13;93088.56;;;17.97;55.29
65376;BME280;51976;47.332;9.404;2022-10-16T07:23:40;93088.56;;;17.97;55.52
65376;BME280;51976;47.332;9.404;2022-10-16T07:26:06;93097.84;;;17.96;55.23
65376;BME280;51976;47.332;9.404;2022-10-16T07:28:32;93093.84;;;17.93;55.08
65376;BME280;51976;47.332;9.404;2022-10-16T07:31:02;93093.19;;;17.97;55.28
65376;BME280;51976;47.332;9.404;2022-10-16T07:33:29;93099.78;;;17.96;55.29
65376;BME280;51976;47.332;9.404;2022-10-16T07:35:55;93097.06;;;17.96;55.31
65376;BME280;51976;47.332;9.404;2022-10-16T07:38:21;93100.59;;;17.96;55.27
65376;BME280;51976;47.332;9.404;2022-10-16T07:40:46;93101.38;;;17.97;55.32
65376;BME280;51976;47.332;9.404;2022-10-16T07:43:13;93106.84;;;17.97;55.07
65376;BME280;51976;47.332;9.404;2022-10-16T07:45:48;93116.63;;;17.98;55.33
65376;BME280;51976;47.332;9.404;2022-10-16T07:48:15;93109.56;;;17.97;55.31
65376;BME280;51976;47.332;9.404;2022-10-16T07:50:41;93115.03;;;17.97;55.19
65376;BME280;51976;47.332;9.404;2022-10-16T07:53:06;93111.81;;;17.95;55.23
65376;BME280;51976;47.332;9.404;2022-10-16T07:55:32;93123.19;;;17.97;55.18
65376;BME280;51976;47.332;9.404;2022-10-16T07:57:57;93122.09;;;17.98;55.17
65376;BME280;51976;47.332;9.404;2022-10-16T08:00:23;93128.03;;;18.00;54.97
65376;BME280;51976;47.332;9.404;2022-10-16T08:02:48;93127.53;;;17.98;55.10
65376;BME280;51976;47.332;9.404;2022-10-16T08:05:13;93124.81;;;17.98;55.16
65376;BME280;51976;47.332;9.404;2022-10-16T08:07:39;93132.69;;;17.99;55.28
65376;BME280;51976;47.332;9.404;2022-10-16T08:10:05;93133.00;;;17.98;55.03
65376;BME280;51976;47.332;9.404;2022-10-16T08:12:30;93136.84;;;17.97;55.39
65376;BME280;51976;47.332;9.404;2022-10-16T08:14:55;93137.31;;;17.99;55.15
65376;BME280;51976;47.332;9.404;2022-10-16T08:17:21;93138.44;;;17.98;55.40
65376;BME280;51976;47.332;9.404;2022-10-16T08:19:47;93146.00;;;18.01;55.08
65376;BME280;51976;47.332;9.404;2022-10-16T08:22:13;93138.13;;;17.99;55.30
65376;BME280;51976;47.332;9.404;2022-10-16T08:24:39;93140.53;;;18.01;55.11
65376;BME280;51976;47.332;9.404;2022-10-16T08:27:04;93137.00;;;18.00;55.32
65376;BME280;51976;47.332;9.404;2022-10-16T08:29:30;93137.81;;;18.01;55.06
65376;BME280;51976;47.332;9.404;2022-10-16T08:31:55;93145.50;;;17.99;55.38
65376;BME280;51976;47.332;9.404;2022-10-16T08:34:21;93140.06;;;17.99;55.29
65376;BME280;51976;47.332;9.404;2022-10-16T08:36:46;93144.06;;;18.01;55.33
65376;BME280;51976;47.332;9.404;2022-10-16T08:39:11;93149.53;;;18.01;55.23
65376;BME280;51976;47.332;9.404;2022-10-16T08:42:00;93158.84;;;18.00;55.11
65376;BME280;51976;47.332;9.404;2022-10-16T08:44:47;93159.63;;;18.01;55.12
65376;BME280;51976;47.332;9.404;2022-10-16T08:47:22;93154.19;;;18.01;54.98
65376;BME280;51976;47.332;9.404;2022-10-16T08:49:57;93156.59;;;18.02;55.27
65376;BME280;51976;47.332;9.404;2022-10-16T08:52:28;93171.03;;;18.03;55.00
65376;BME280;51976;47.332;9.404;2022-10-16T08:54:55;93168.78;;;18.05;55.01
65376;BME280;51976;47.332;9.404;2022-10-16T08:57:23;93166.06;;;18.05;55.08
65376;BME280;51976;47.332;9.404;2022-10-16T08:59:50;93168.78;;;18.05;55.14
65376;BME280;51976;47.332;9.404;2022-10-16T09:02:30;93161.06;;;18.07;55.27
65376;BME280;51976;47.332;9.404;2022-10-16T09:05:17;93171.97;;;18.07;55.20
65376;BME280;51976;47.332;9.404;2022-10-16T09:08:09;93171.97;;;18.07;55.05
65376;BME280;51976;47.332;9.404;2022-10-16T09:10:56;93169.25;;;18.07;55.20
65376;BME280;51976;47.332;9.404;2022-10-16T09:13:53;93171.66;;;18.08;54.97
65376;BME280;51976;47.332;9.404;2022-10-16T09:16:25;93169.25;;;18.07;55.25
65376;BME280;51976;47.332;9.404;2022-10-16T09:19:13;93162.66;;;18.08;54.92
65376;BME280;51976;47.332;9.404;2022-10-16T09:21:42;93170.03;;;18.07;55.19
65376;BME280;51976;47.332;9.404;2022-10-16T09:24:18;93175.50;;;18.07;55.13
65376;BME280;51976;47.332;9.404;2022-10-16T09:26:44;93186.56;;;18.11;55.13
65376;BME280;51976;47.332;9.404;2022-10-16T09:29:14;93184.16;;;18.09;55.09
65376;BME280;51976;47.332;9.404;2022-10-16T09:31:41;93184.97;;;18.10;55.07
65376;BME280;51976;47.332;9.404;2022-10-16T09:34:23;93192.34;;;18.09;54.98
65376;BME280;51976;47.332;9.404;2022-10-16T09:36:50;93179.50;;;18.10;55.22
65376;BME280;51976;47.332;9.404;2022-10-16T09:39:16;93184.97;;;18.10;54.94
65376;BME280;51976;47.332;9.404;2022-10-16T09:41:44;93185.78;;;18.10;55.19
65376;BME280;51976;47.332;9.404;2022-10-16T09:44:23;93176.16;;;18.13;54.85
65376;BME280;51976;47.332;9.404;2022-10-16T09:47:04;93178.88;;;18.13;55.10
65376;BME280;51976;47.332;9.404;2022-10-16T09:49:29;93184.00;;;18.14;55.02
65376;BME280;51976;47.332;9.404;2022-10-16T09:52:13;93182.56;;;18.17;55.20
65376;BME280;51976;47.332;9.404;2022-10-16T09:54:49;93176.00;;;18.18;54.86
65376;BME280;51976;47.332;9.404;2022-10-16T09:57:15;93172.63;;;18.21;54.91
65376;BME280;51976;47.332;9.404;2022-10-16T09:59:51;93172.78;;;18.24;54.84
65376;BME280;51976;47.332;9.404;2022-10-16T10:02:19;93177.63;;;18.27;54.78
65376;BME280;51976;47.332;9.404;2022-10-16T10:04:51;93180.81;;;18.30;54.56
65376;BME280;51976;47.332;9.404;2022-10-16T10:07:24;93173.75;;;18.29;54.61
65376;BME280;51976;47.332;9.404;2022-10-16T10:09:51;93180.50;;;18.31;54.46
65376;BME280;51976;47.332;9.404;2022-10-16T10:12:23;93180.63;;;18.35;54.55
65376;BME280;51976;47.332;9.404;2022-10-16T10:14:51;93185.44;;;18.38;54.35
65376;BME280;51976;47.332;9.404;2022-10-16T10:17:20;93174.84;;;18.36;54.37
65376;BME280;51976;47.332;9.404;2022-10-16T10:19:57;93180.81;;;18.38;54.46
65376;BME280;51976;47.332;9.404;2022-10-16T10:22:29;93173.56;;;18.42;54.57
65376;BME280;51976;47.332;9.404;2022-10-16T10:25:19;93178.06;;;18.47;54.45
65376;BME280;51976;47.332;9.404;2022-10-16T10:31:12;93170.53;;;18.52;54.29
65376;BME280;51976;47.332;9.404;2022-10-16T10:34:05;93170.69;;;18.56;54.01
65376;BME280;51976;47.332;9.404;2022-10-16T10:36:39;93172.28;;;18.57;54.29
65376;BME280;51976;47.332;9.404;2022-10-16T10:42:12;93165.88;;;18.62;53.89
65376;BME280;51976;47.332;9.404;2022-10-16T10:48:03;93164.56;;;18.68;53.93
65376;BME280;51976;47.332;9.404;2022-10-16T10:50:43;93164.56;;;18.68;53.94
65376;BME280;51976;47.332;9.404;2022-10-16T10:53:24;93166.66;;;18.71;53.94
65376;BME280;51976;47.332;9.404;2022-10-16T11:02:14;93162.00;;;18.80;53.53
65376;BME280;51976;47.332;9.404;2022-10-16T11:07:49;93165.34;;;18.85;53.40
65376;BME280;51976;47.332;9.404;2022-10-16T11:10:23;93165.03;;;18.87;53.43
65376;BME280;51976;47.332;9.404;2022-10-16T11:12:54;93160.81;;;18.89;53.63
65376;BME280;51976;47.332;9.404;2022-10-16T11:15:35;93161.31;;;18.91;53.60
65376;BME280;51976;47.332;9.404;2022-10-16T11:18:10;93162.91;;;18.92;53.45
65376;BME280;51976;47.332;9.404;2022-10-16T11:20:42;93163.38;;;18.94;53.56
65376;BME280;51976;47.332;9.404;2022-10-16T11:23:25;93157.28;;;18.98;53.51
65376;BME280;51976;47.332;9.404;2022-10-16T11:25:57;93151.47;;;18.99;53.20
65376;BME280;51976;47.332;9.404;2022-10-16T11:28:31;93157.09;;;19.03;53.56
65376;BME280;51976;47.332;9.404;2022-10-16T11:31:04;93145.38;;;19.02;53.32
65376;BME280;51976;47.332;9.404;2022-10-16T11:33:38;93158.84;;;19.07;53.14
65376;BME280;51976;47.332;9.404;2022-10-16T11:36:26;93146.81;;;19.08;53.22
65376;BME280;51976;47.332;9.404;2022-10-16T11:39:24;93151.63;;;19.11;53.14
65376;BME280;51976;47.332;9.404;2022-10-16T11:42:03;93134.56;;;19.14;53.00
65376;BME280;51976;47.332;9.404;2022-10-16T11:47:43;93136.28;;;19.19;53.27
65376;BME280;51976;47.332;9.404;2022-10-16T11:50:34;93134.34;;;19.19;53.19
65376;BME280;51976;47.332;9.404;2022-10-16T11:55:56;93135.31;;;19.23;53.25
65376;BME280;51976;47.332;9.404;2022-10-16T11:58:46;93129.53;;;19.25;52.95
65376;BME280;51976;47.332;9.404;2022-10-16T12:01:21;93130.78;;;19.27;52.85
65376;BME280;51976;47.332;9.404;2022-10-16T12:04:12;93129.66;;;19.28;53.03
65376;BME280;51976;47.332;9.404;2022-10-16T12:06:44;93129.34;;;19.30;52.76
65376;BME280;51976;47.332;9.404;2022-10-16T12:09:24;93119.69;;;19.33;52.86
65376;BME280;51976;47.332;9.404;2022-10-16T12:11:51;93124.03;;;19.34;52.93
65376;BME280;51976;47.332;9.404;2022-10-16T12:14:32;93118.56;;;19.34;53.02
65376;BME280;51976;47.332;9.404;2022-10-16T12:20:18;93126.09;;;19.37;53.07
65376;BME280;51976;47.332;9.404;2022-10-16T12:23:06;93120.31;;;19.38;52.75
65376;BME280;51976;47.332;9.404;2022-10-16T12:25:36;93120.78;;;19.40;52.67
65376;BME280;51976;47.332;9.404;2022-10-16T12:28:07;93122.81;;;19.43;52.83
65376;BME280;51976;47.332;9.404;2022-10-16T12:30:43;93121.22;;;19.42;52.78
65376;BME280;51976;47.332;9.404;2022-10-16T12:33:22;93124.91;;;19.46;52.74
65376;BME280;51976;47.332;9.404;2022-10-16T12:35:49;93121.38;;;19.46;52.87
65376;BME280;51976;47.332;9.404;2022-10-16T12:38:21;93115.25;;;19.49;52.91
65376;BME280;51976;47.332;9.404;2022-10-16T12:40:59;93116.03;;;19.49;52.66
65376;BME280;51976;47.332;9.404;2022-10-16T12:43:41;93116.84;;;19.50;52.64
65376;BME280;51976;47.332;9.404;2022-10-16T12:46:35;93114.59;;;19.52;52.89
65376;BME280;51976;47.332;9.404;2022-10-16T12:49:21;93110.75;;;19.53;52.89
65376;BME280;51976;47.332;9.404;2022-10-16T12:51:47;93108.97;;;19.57;52.96
65376;BME280;51976;47.332;9.404;2022-10-16T12:54:30;93104.28;;;19.57;52.54
65376;BME280;51976;47.332;9.404;2022-10-16T12:57:24;93111.84;;;19.60;52.96
65376;BME280;51976;47.332;9.404;2022-10-16T13:00:14;93113.44;;;19.62;52.76
65376;BME280;51976;47.332;9.404;2022-10-16T13:02:56;93109.25;;;19.64;52.60
65376;BME280;51976;47.332;9.404;2022-10-16T13:05:44;93110.38;;;19.63;52.88
65376;BME280;51976;47.332;9.404;2022-10-16T13:08:36;93104.56;;;19.65;52.57
65376;BME280;51976;47.332;9.404;2022-10-16T13:11:17;93111.97;;;19.64;52.64
65376;BME280;51976;47.332;9.404;2022-10-16T13:20:16;93105.41;;;19.56;52.81
65376;BME280;51976;47.332;9.404;2022-10-16T13:26:09;93120.97;;;19.65;53.11
65376;BME280;51976;47.332;9.404;2022-10-16T13:28:39;93115.84;;;19.63;53.11
65376;BME280;51976;47.332;9.404;2022-10-16T13:31:13;93111.50;;;19.62;52.98
65376;BME280;51976;47.332;9.404;2022-10-16T13:33:42;93109.91;;;19.61;52.86
65376;BME280;51976;47.332;9.404;2022-10-16T13:36:24;93112.31;;;19.63;53.14
65376;BME280;51976;47.332;9.404;2022-10-16T13:39:29;93116.63;;;19.64;52.80
65376;BME280;51976;47.332;9.404;2022-10-16T13:41:45;93117.78;;;19.63;52.82
65376;BME280;51976;47.332;9.404;2022-10-16T13:44:19;93110.38;;;19.63;53.04
65376;BME280;51976;47.332;9.404;2022-10-16T13:46:46;93106.19;;;19.66;52.82
65376;BME280;51976;47.332;9.404;2022-10-16T13:49:14;93111.66;;;19.66;52.90
65376;BME280;51976;47.332;9.404;2022-10-16T13:51:40;93106.50;;;19.64;52.96
65376;BME280;51976;47.332;9.404;2022-10-16T13:54:09;93112.44;;;19.66;53.09
65376;BME280;51976;47.332;9.404;2022-10-16T13:56:38;93112.44;;;19.66;52.99